createdAt,value
2022-07-29T00:00:17.403Z,17.75
2022-07-29T00:05:25.418Z,17.76
2022-07-29T00:10:32.632Z,17.6
2022-07-29T00:15:40.558Z,17.58
2022-07-29T00:20:48.032Z,17.36
2022-07-29T00:25:54.863Z,17.17
2022-07-29T00:31:02.151Z,17.19
2022-07-29T00:36:08.658Z,17.06
2022-07-29T00:41:16.689Z,16.92
2022-07-29T00:46:24.843Z,16.86
2022-07-29T00:51:33.115Z,16.65
2022-07-29T00:56:40.677Z,16.65
2022-07-29T01:02:27.473Z,16.59
2022-07-29T01:07:40.419Z,16.36
2022-07-29T01:12:48.368Z,16.2
2022-07-29T01:17:55.613Z,16.14
2022-07-29T01:23:03.858Z,15.94
2022-07-29T01:28:11.832Z,16.09
2022-07-29T01:33:19.982Z,16.18
2022-07-29T01:38:27.764Z,16.11
2022-07-29T01:43:36.041Z,16.02
2022-07-29T01:48:44.119Z,16.07
2022-07-29T01:53:51.927Z,15.97
2022-07-29T01:59:00.090Z,15.82
2022-07-29T02:04:08.049Z,15.72
2022-07-29T02:09:15.775Z,15.75
2022-07-29T02:14:24.763Z,15.76
2022-07-29T02:19:33.256Z,15.74
2022-07-29T02:24:41.260Z,15.66
2022-07-29T02:29:48.870Z,15.57
2022-07-29T02:34:56.900Z,15.75
2022-07-29T02:40:04.102Z,15.7
2022-07-29T02:45:11.231Z,15.53
2022-07-29T02:50:19.073Z,15.48
2022-07-29T02:55:27.108Z,15.49
2022-07-29T03:00:35.323Z,15.62
2022-07-29T03:05:43.952Z,15.74
2022-07-29T03:10:50.762Z,15.79
2022-07-29T03:15:58.394Z,15.84
2022-07-29T03:21:05.906Z,15.74
2022-07-29T03:26:13.487Z,15.76
2022-07-29T03:31:21.422Z,15.58
2022-07-29T03:36:29.559Z,15.56
2022-07-29T03:41:37.715Z,15.44
2022-07-29T03:46:45.899Z,15.7
2022-07-29T03:51:54.310Z,15.63
2022-07-29T03:57:02.282Z,15.65
2022-07-29T04:02:11.084Z,15.75
2022-07-29T04:07:19.500Z,15.9
2022-07-29T04:12:28.150Z,16.24
2022-07-29T04:17:43.240Z,16.91
2022-07-29T04:22:51.173Z,18.09
2022-07-29T04:27:58.368Z,18.9
2022-07-29T04:33:06.173Z,20.32
2022-07-29T04:38:14.635Z,21.84
2022-07-29T04:43:23.070Z,22.67
2022-07-29T04:48:30.980Z,23.9
2022-07-29T04:53:39.240Z,24.84
2022-07-29T04:58:47.289Z,25.6
2022-07-29T05:03:54.506Z,27.16
2022-07-29T05:09:02.394Z,26.83
2022-07-29T05:14:09.579Z,24.65
2022-07-29T05:19:17.592Z,24.14
2022-07-29T05:24:27.006Z,23.81
2022-07-29T05:29:34.333Z,24.54
2022-07-29T05:34:42.497Z,25.67
2022-07-29T05:39:50.694Z,24.16
2022-07-29T05:44:58.549Z,22.97
2022-07-29T05:50:05.819Z,22.62
2022-07-29T05:55:12.953Z,22.69
2022-07-29T06:00:20.755Z,22.54
2022-07-29T06:05:28.994Z,22.02
2022-07-29T06:10:36.219Z,22.07
2022-07-29T06:15:44.829Z,22.43
2022-07-29T06:20:52.095Z,21.72
2022-07-29T06:38:52.330Z,20.67
2022-07-29T06:43:59.558Z,20.17
2022-07-29T06:49:06.817Z,19.8
2022-07-29T06:54:15.172Z,19.56
2022-07-29T06:59:22.714Z,19.52
2022-07-29T07:04:29.736Z,19.64
2022-07-29T07:09:38.685Z,19.7
2022-07-29T07:14:46.009Z,19.2
2022-07-29T07:19:53.628Z,19.2
2022-07-29T07:25:01.045Z,19.46
2022-07-29T07:30:09.132Z,19.59
2022-07-29T07:35:16.159Z,19.52
2022-07-29T07:40:24.969Z,19.56
2022-07-29T07:45:33.100Z,19.53
2022-07-29T07:50:40.891Z,19.44
2022-07-29T07:55:48.483Z,19.56
2022-07-29T08:00:55.932Z,19.91
2022-07-29T08:06:05.015Z,20.56
2022-07-29T08:11:12.238Z,21.17
2022-07-29T08:16:20.161Z,21.71
2022-07-29T08:21:28.341Z,22.88
2022-07-29T08:26:36.012Z,22.56
2022-07-29T08:31:44.356Z,21.94
2022-07-29T08:36:51.462Z,22.22
2022-07-29T08:42:00.243Z,22.6
2022-07-29T08:47:07.784Z,22.76
2022-07-29T08:52:15.609Z,23.02
2022-07-29T08:57:22.858Z,23.75
2022-07-29T09:02:30.053Z,24.51
2022-07-29T09:07:38.998Z,23.99
2022-07-29T09:12:46.447Z,23.47
2022-07-29T09:17:54.175Z,22.82
2022-07-29T09:23:01.999Z,22.58
2022-07-29T09:28:07.976Z,22.7
2022-07-29T09:33:15.864Z,22.58
2022-07-29T09:38:24.066Z,22.26
2022-07-29T09:43:32.089Z,21.84
2022-07-29T09:48:40.038Z,21.7
2022-07-29T09:53:48.800Z,21.98
2022-07-29T09:58:56.292Z,22.3
2022-07-29T10:04:09.712Z,22.28
2022-07-29T10:09:16.413Z,22.39
2022-07-29T10:14:24.251Z,23.12
2022-07-29T10:19:32.037Z,24.33
2022-07-29T10:24:39.355Z,25.66
2022-07-29T10:29:51.479Z,31.4
2022-07-29T10:34:58.770Z,32.26
2022-07-29T10:40:06.019Z,32.47
2022-07-29T10:45:14.675Z,32.76
2022-07-29T10:50:22.549Z,30.35
2022-07-29T10:55:30.679Z,29.42
2022-07-29T11:00:38.509Z,32.08
2022-07-29T11:05:46.361Z,30.8
2022-07-29T11:10:53.812Z,30.68
2022-07-29T11:16:01.974Z,31.83
2022-07-29T11:21:11.095Z,32.9
2022-07-29T11:26:17.898Z,31.39
2022-07-29T11:31:25.768Z,31.14
2022-07-29T11:36:33.476Z,31.02
2022-07-29T11:41:42.014Z,31.65
2022-07-29T11:46:49.781Z,31.86
2022-07-29T11:51:57.707Z,31.32
2022-07-29T11:57:05.940Z,30.52
2022-07-29T12:02:13.425Z,30.74
2022-07-29T12:07:20.628Z,31.0
2022-07-29T12:12:28.382Z,30.65
2022-07-29T12:17:36.528Z,30.43
2022-07-29T12:22:44.393Z,30.31
2022-07-29T12:27:52.081Z,30.16
2022-07-29T12:32:58.993Z,29.78
2022-07-29T12:44:45.588Z,29.94
2022-07-29T12:49:51.029Z,30.83
2022-07-29T12:54:59.362Z,31.47
2022-07-29T13:00:06.328Z,31.22
2022-07-29T13:05:13.950Z,30.88
2022-07-29T13:10:22.773Z,30.34
2022-07-29T13:15:29.536Z,29.62
2022-07-29T13:20:36.103Z,29.12
2022-07-29T13:25:43.299Z,28.51
2022-07-29T13:30:51.063Z,28.65
2022-07-29T13:35:58.518Z,28.66
2022-07-29T13:41:06.673Z,29.17
2022-07-29T13:46:15.111Z,29.72
2022-07-29T13:51:22.099Z,29.62
2022-07-29T13:56:30.449Z,29.34
2022-07-29T14:01:37.691Z,28.85
2022-07-29T14:06:45.946Z,28.19
2022-07-29T14:11:54.469Z,28.76
2022-07-29T14:17:02.883Z,28.94
2022-07-29T14:22:11.313Z,28.5
2022-07-29T14:27:17.971Z,27.75
2022-07-29T14:32:24.819Z,28.04
2022-07-29T14:37:31.829Z,28.67
2022-07-29T14:42:39.677Z,27.96
2022-07-29T14:47:47.714Z,27.26
2022-07-29T14:52:56.524Z,26.76
2022-07-29T14:58:03.856Z,26.61
2022-07-29T15:03:11.614Z,26.68
2022-07-29T15:08:19.987Z,26.92
2022-07-29T15:13:28.463Z,27.24
2022-07-29T15:18:35.995Z,27.96
2022-07-29T15:23:44.582Z,28.38
2022-07-29T15:28:52.096Z,28.42
2022-07-29T15:34:01.214Z,28.38
2022-07-29T15:39:08.458Z,28.14
2022-07-29T15:44:16.059Z,27.51
2022-07-29T15:49:22.854Z,27.15
2022-07-29T15:54:31.801Z,27.82
2022-07-29T15:59:39.134Z,28.29
2022-07-29T16:04:46.316Z,28.93
2022-07-29T16:09:54.729Z,29.76
2022-07-29T16:15:01.790Z,29.66
2022-07-29T16:20:09.783Z,29.23
2022-07-29T16:25:17.894Z,28.96
2022-07-29T16:30:25.097Z,28.2
2022-07-29T16:35:32.033Z,27.31
2022-07-29T16:42:10.836Z,26.33
2022-07-29T16:47:17.219Z,25.8
2022-07-29T16:52:23.713Z,25.51
2022-07-29T16:57:32.012Z,25.34
2022-07-29T17:02:38.971Z,25.31
2022-07-29T17:07:46.320Z,25.26
2022-07-29T17:12:53.378Z,25.14
2022-07-29T17:18:01.322Z,24.94
2022-07-29T17:23:08.562Z,24.8
2022-07-29T17:28:15.607Z,24.56
2022-07-29T17:33:23.743Z,24.34
2022-07-29T17:38:32.326Z,24.43
2022-07-29T17:43:40.676Z,24.34
2022-07-29T17:48:48.924Z,24.22
2022-07-29T17:53:56.853Z,23.86
2022-07-29T17:59:04.975Z,23.4
2022-07-29T18:04:12.469Z,23.02
2022-07-29T18:09:20.393Z,22.75
2022-07-29T18:14:29.126Z,22.35
2022-07-29T18:19:36.712Z,22.01
2022-07-29T18:24:44.834Z,21.76
2022-07-29T18:29:52.537Z,21.52
2022-07-29T18:34:59.555Z,21.39
2022-07-29T18:40:07.220Z,21.2
2022-07-29T18:45:16.286Z,21.1
2022-07-29T18:50:24.214Z,20.94
2022-07-29T18:55:32.606Z,20.74
2022-07-29T19:00:40.387Z,20.58
2022-07-29T19:05:49.016Z,20.5
2022-07-29T19:10:57.280Z,20.2
2022-07-29T19:16:04.978Z,19.94
2022-07-29T19:21:12.924Z,19.68
2022-07-29T19:26:21.251Z,19.49
2022-07-29T19:31:29.081Z,19.52
2022-07-29T19:36:36.092Z,19.47
2022-07-29T19:41:43.806Z,19.44
2022-07-29T19:46:51.822Z,19.38
2022-07-29T19:52:00.165Z,19.21
2022-07-29T19:57:07.153Z,19.07
2022-07-29T20:02:15.296Z,19.08
2022-07-29T20:07:22.696Z,19.21
2022-07-29T20:12:30.514Z,19.06
2022-07-29T20:17:38.325Z,18.82
2022-07-29T20:22:45.367Z,18.65
2022-07-29T20:27:53.213Z,18.57
2022-07-29T20:33:00.412Z,18.7
2022-07-29T20:38:08.259Z,18.64
2022-07-29T20:43:17.096Z,18.65
2022-07-29T20:48:24.766Z,18.68
2022-07-29T20:53:32.840Z,18.58
2022-07-29T20:58:40.229Z,18.56
2022-07-29T21:03:47.451Z,18.65
2022-07-29T21:08:55.291Z,18.65
2022-07-29T21:14:03.183Z,18.54
2022-07-29T21:19:10.345Z,18.48
2022-07-29T21:24:18.616Z,18.43
2022-07-29T21:29:25.368Z,18.38
2022-07-29T21:34:33.488Z,18.34
2022-07-29T21:39:41.937Z,18.28
2022-07-29T21:44:50.682Z,18.17
2022-07-29T21:49:58.584Z,18.08
2022-07-29T21:55:06.748Z,18.04
2022-07-29T22:00:16.130Z,18.0
2022-07-29T22:05:23.511Z,18.02
2022-07-29T22:10:31.320Z,17.92
2022-07-29T22:15:39.140Z,17.98
2022-07-29T22:20:47.251Z,18.06
2022-07-29T22:25:54.709Z,18.4
2022-07-29T22:31:02.207Z,18.7
2022-07-29T22:36:09.321Z,18.94
2022-07-29T22:41:16.421Z,19.15
2022-07-29T22:46:22.906Z,19.33
2022-07-29T22:51:30.165Z,19.46
2022-07-29T22:56:38.922Z,19.5
2022-07-29T23:01:47.485Z,19.54
2022-07-29T23:07:00.742Z,19.6
2022-07-29T23:12:07.935Z,19.62
2022-07-29T23:17:16.219Z,19.72
2022-07-29T23:22:24.251Z,20.01
2022-07-29T23:27:31.474Z,20.56
2022-07-29T23:32:39.771Z,20.88
2022-07-29T23:37:47.514Z,21.23
2022-07-29T23:42:55.593Z,21.34
2022-07-29T23:48:02.774Z,20.62
2022-07-29T23:53:09.338Z,19.25
2022-07-29T23:58:17.178Z,18.51
